Time;durP1;ratioP1;P1;durP2;ratioP2;P2;SDS_P1;SDS_P2;PMS_P1;PMS_P2;Temp;Humidity;BMP_temperature;BMP_pressure;BME280_temperature;BME280_humidity;BME280_pressure;Samples;Min_cycle;Max_cycle;Signal;HPM_P1;HPM_P2
2022/06/25 00:01:33;;;;;;;4.30;2.70;;;;;;;18.15;60.86;100744.90;107637;1244;72363;-73
2022/06/25 00:04:03;;;;;;;4.60;2.80;;;;;;;18.15;60.55;100743.30;107765;1243;58167;-74
2022/06/25 00:06:33;;;;;;;5.40;2.90;;;;;;;18.11;60.98;100743.60;107807;1243;61147;-71
2022/06/25 00:09:01;;;;;;;5.50;3.00;;;;;;;18.07;61.25;100744.20;107827;1243;73922;-73
2022/06/25 00:14:18;;;;;;;5.50;3.00;;;;;;;17.92;63.01;100738.85;107795;1243;70024;-72
2022/06/25 00:16:47;;;;;;;6.00;2.90;;;;;;;17.80;63.56;100732.67;107767;1243;74893;-73
2022/06/25 00:19:16;;;;;;;5.00;3.00;;;;;;;17.73;64.02;100730.89;107975;1241;62328;-72
2022/06/25 00:21:45;;;;;;;7.20;2.80;;;;;;;17.65;64.29;100728.30;107811;1243;59778;-75
2022/06/25 00:24:16;;;;;;;4.70;2.80;;;;;;;17.55;65.74;100732.52;107663;1243;73217;-74
2022/06/25 00:26:45;;;;;;;5.10;2.60;;;;;;;17.44;64.62;100731.93;107821;1243;72410;-73
2022/06/25 00:29:14;;;;;;;5.20;3.00;;;;;;;17.32;63.68;100735.05;107805;1243;69505;-70
2022/06/25 00:31:43;;;;;;;5.00;3.00;;;;;;;17.17;64.46;100737.60;107709;1243;71929;-72
2022/06/25 00:34:12;;;;;;;4.40;3.00;;;;;;;17.02;65.43;100741.41;107833;1244;63021;-73
2022/06/25 00:36:41;;;;;;;6.80;3.20;;;;;;;16.83;68.54;100742.55;107676;1243;60889;-73
2022/06/25 00:39:10;;;;;;;5.00;2.70;;;;;;;16.71;69.02;100739.83;107572;1244;73946;-73
2022/06/25 00:41:39;;;;;;;4.30;2.70;;;;;;;16.58;69.82;100740.02;107634;1243;71275;-73
2022/06/25 00:44:09;;;;;;;6.80;2.90;;;;;;;16.49;70.18;100738.10;107713;1243;69223;-72
2022/06/25 00:46:39;;;;;;;6.50;3.00;;;;;;;16.44;70.34;100735.60;107735;1243;74890;-71
2022/06/25 00:49:08;;;;;;;5.90;2.80;;;;;;;16.42;70.24;100736.64;107672;1243;62072;-73
2022/06/25 00:51:40;;;;;;;6.00;3.00;;;;;;;16.37;70.29;100736.64;107660;1243;60076;-72
2022/06/25 00:54:10;;;;;;;7.10;2.80;;;;;;;16.29;70.36;100734.24;107655;1244;73170;-75
2022/06/25 00:56:49;;;;;;;6.40;3.30;;;;;;;16.23;68.52;100733.94;107620;1244;71017;-73
2022/06/25 00:59:28;;;;;;;5.90;2.70;;;;;;;16.10;69.23;100740.27;107679;1244;68741;-71
2022/06/25 01:01:58;;;;;;;5.40;3.00;;;;;;;15.97;69.17;100741.70;107665;1243;73130;-73
2022/06/25 01:04:27;;;;;;;6.20;3.10;;;;;;;15.85;69.97;100739.98;107591;1243;62186;-73
2022/06/25 01:06:56;;;;;;;5.50;3.10;;;;;;;15.75;71.95;100735.54;107628;1243;59045;-75
2022/06/25 01:09:26;;;;;;;6.90;3.20;;;;;;;15.67;72.59;100735.27;107619;1244;71965;-72
2022/06/25 01:11:55;;;;;;;5.90;3.10;;;;;;;15.64;72.82;100740.02;108063;1242;71609;-74
2022/06/25 01:14:24;;;;;;;5.20;2.90;;;;;;;15.60;73.12;100733.06;107743;1244;71256;-76
2022/06/25 01:16:53;;;;;;;3.70;2.80;;;;;;;15.63;73.12;100738.69;107729;1243;75129;-75
2022/06/25 01:19:22;;;;;;;5.50;3.30;;;;;;;15.66;72.93;100738.08;107720;1243;62512;-72
2022/06/25 01:21:51;;;;;;;6.10;3.20;;;;;;;15.72;72.70;100740.40;107783;1244;62261;-72
2022/06/25 01:24:20;;;;;;;4.00;2.90;;;;;;;15.71;72.80;100743.99;107691;1243;74719;-72
2022/06/25 01:26:48;;;;;;;5.40;2.90;;;;;;;15.67;72.70;100749.30;107679;1243;71798;-75
2022/06/25 01:29:17;;;;;;;5.20;3.20;;;;;;;15.60;73.12;100757.96;107850;1244;70958;-73
2022/06/25 01:31:47;;;;;;;5.10;3.20;;;;;;;15.56;73.25;100763.61;107956;1243;74849;-75
2022/06/25 01:34:16;;;;;;;5.20;3.10;;;;;;;15.50;73.46;100758.15;107731;1244;62501;-73
2022/06/25 01:36:45;;;;;;;5.50;3.00;;;;;;;15.47;73.52;100753.01;107634;1244;59554;-73
2022/06/25 01:39:14;;;;;;;5.80;3.10;;;;;;;15.51;73.42;100762.87;107836;1243;71180;-72
2022/06/25 01:41:43;;;;;;;5.30;3.00;;;;;;;15.44;72.64;100765.88;107741;1243;72353;-70
2022/06/25 01:44:14;;;;;;;4.80;3.10;;;;;;;15.34;72.63;100768.61;107823;1243;71193;-70
2022/06/25 01:46:44;;;;;;;4.70;3.40;;;;;;;15.25;71.75;100767.33;107818;1242;72278;-71
2022/06/25 01:49:13;;;;;;;5.20;2.80;;;;;;;15.15;71.47;100769.59;107519;1244;62891;-73
2022/06/25 01:51:43;;;;;;;10.60;3.00;;;;;;;15.01;73.55;100772.98;107827;1244;60328;-73
2022/06/25 01:54:12;;;;;;;5.50;2.90;;;;;;;14.91;74.51;100771.41;107691;1244;74510;-75
2022/06/25 01:56:42;;;;;;;4.60;3.00;;;;;;;14.88;73.64;100771.71;107977;1244;72272;-74
2022/06/25 01:59:10;;;;;;;6.50;3.20;;;;;;;14.86;75.18;100776.27;107770;1243;70555;-72
2022/06/25 02:01:39;;;;;;;4.70;3.00;;;;;;;14.86;75.24;100779.73;107742;1244;74311;-68
2022/06/25 02:04:08;;;;;;;4.80;3.10;;;;;;;14.84;74.99;100781.54;107881;1244;60725;-74
2022/06/25 02:06:37;;;;;;;8.30;3.30;;;;;;;14.81;75.21;100779.02;108006;1242;60512;-74
2022/06/25 02:09:06;;;;;;;4.80;3.00;;;;;;;14.77;73.44;100778.44;107972;1244;74075;-73
2022/06/25 02:11:35;;;;;;;5.50;3.00;;;;;;;14.71;73.20;100780.55;107966;1244;72962;-72
2022/06/25 02:14:04;;;;;;;4.60;2.90;;;;;;;14.64;74.25;100784.04;107891;1245;70016;-72
2022/06/25 02:16:33;;;;;;;5.60;3.00;;;;;;;14.59;73.45;100782.33;107785;1243;73635;-73
2022/06/25 02:19:04;;;;;;;5.10;3.60;;;;;;;14.51;74.17;100788.48;107799;1243;63183;-72
2022/06/25 02:21:34;;;;;;;5.50;3.10;;;;;;;14.44;73.18;100790.80;107721;1244;61687;-73
2022/06/25 02:24:04;;;;;;;6.00;3.30;;;;;;;14.36;75.04;100794.32;107750;1244;72489;-75
2022/06/25 02:26:33;;;;;;;4.20;2.90;;;;;;;14.30;76.81;100797.44;107727;1244;71498;-73
2022/06/25 02:29:02;;;;;;;5.00;3.20;;;;;;;14.30;77.35;100799.71;107777;1244;70100;-74
2022/06/25 02:31:31;;;;;;;9.80;3.20;;;;;;;14.32;77.24;100801.14;107690;1244;72370;-73
2022/06/25 02:34:01;;;;;;;4.70;3.40;;;;;;;14.34;77.03;100804.30;107521;1244;62250;-71
2022/06/25 02:36:31;;;;;;;6.20;3.60;;;;;;;14.35;77.05;100803.54;107623;1244;62036;-72
2022/06/25 02:39:00;;;;;;;7.40;3.30;;;;;;;14.36;76.34;100804.52;107647;1244;74125;-72
2022/06/25 02:41:29;;;;;;;6.50;3.30;;;;;;;14.35;76.79;100805.14;107802;1244;69953;-73
2022/06/25 02:43:58;;;;;;;6.50;3.60;;;;;;;14.37;76.70;100808.63;107666;1244;68689;-71
2022/06/25 02:46:38;;;;;;;8.00;3.60;;;;;;;14.39;76.53;100807.08;107706;1244;73955;-70
2022/06/25 02:49:07;;;;;;;7.10;3.60;;;;;;;14.42;76.24;100807.33;107650;1244;61561;-74
2022/06/25 02:51:36;;;;;;;6.80;3.50;;;;;;;14.46;76.37;100811.86;107581;1245;60160;-73
2022/06/25 02:54:05;;;;;;;7.80;4.30;;;;;;;14.50;76.50;100811.86;107618;1244;72415;-72
2022/06/25 02:59:23;;;;;;;6.40;3.30;;;;;;;14.60;75.89;100817.64;107838;1244;70647;-72
2022/06/25 03:01:55;;;;;;;7.10;3.70;;;;;;;14.66;75.83;100813.66;107587;1243;73936;-73
2022/06/25 03:04:28;;;;;;;5.70;3.90;;;;;;;14.70;75.45;100812.80;107757;1244;62736;-70
2022/06/25 03:06:58;;;;;;;9.00;3.70;;;;;;;14.76;75.23;100816.05;108010;1244;61255;-73
2022/06/25 03:09:27;;;;;;;9.20;4.00;;;;;;;14.84;74.94;100821.16;108004;1244;72095;-70
2022/06/25 03:11:57;;;;;;;6.20;3.50;;;;;;;14.91;74.60;100822.69;107906;1244;72472;-72
2022/06/25 03:14:26;;;;;;;8.90;4.10;;;;;;;14.96;74.49;100819.60;108026;1244;70662;-72
2022/06/25 03:16:55;;;;;;;11.00;4.60;;;;;;;15.05;74.36;100819.08;107983;1244;72067;-78
2022/06/25 03:19:25;;;;;;;10.90;4.10;;;;;;;15.14;73.84;100820.98;107898;1244;60569;-75
2022/06/25 03:22:05;;;;;;;13.70;4.40;;;;;;;15.21;73.60;100819.98;107713;1243;61352;-73
2022/06/25 03:24:35;;;;;;;8.00;4.20;;;;;;;15.28;73.88;100823.71;107874;1244;75318;-72
2022/06/25 03:27:04;;;;;;;13.90;4.30;;;;;;;15.32;73.65;100822.48;107611;1246;71208;-70
2022/06/25 03:29:34;;;;;;;11.20;4.30;;;;;;;15.39;73.41;100828.30;107887;1244;70151;-71
2022/06/25 03:32:03;;;;;;;6.50;4.00;;;;;;;15.47;73.01;100830.75;107989;1244;71680;-72
2022/06/25 03:35:16;;;;;;;8.20;4.70;;;;;;;15.59;72.14;100835.46;107704;1244;60563;-71
2022/06/25 03:37:55;;;;;;;9.20;3.50;;;;;;;15.63;71.05;100833.98;107660;1244;58911;-71
2022/06/25 03:40:25;;;;;;;7.60;3.70;;;;;;;15.67;70.62;100838.13;107745;1244;72809;-72
2022/06/25 03:42:56;;;;;;;9.10;4.20;;;;;;;15.70;70.23;100837.09;107922;1245;72825;-74
2022/06/25 03:45:26;;;;;;;9.90;4.40;;;;;;;15.70;70.08;100837.48;107615;1243;69113;-72
2022/06/25 03:47:54;;;;;;;8.70;4.30;;;;;;;15.79;69.81;100836.40;107025;1245;615421;-72
2022/06/25 03:50:24;;;;;;;10.90;4.10;;;;;;;15.85;69.41;100843.14;107632;1244;61751;-72
2022/06/25 03:52:53;;;;;;;9.20;4.40;;;;;;;15.92;70.31;100847.86;107661;1244;61706;-72
2022/06/25 03:55:22;;;;;;;9.60;4.60;;;;;;;15.95;71.23;100845.14;107605;1243;74565;-72
2022/06/25 03:58:11;;;;;;;8.70;4.30;;;;;;;16.08;70.57;100846.96;107805;1244;71748;-70
2022/06/25 04:00:41;;;;;;;7.20;4.40;;;;;;;16.19;70.21;100848.51;107747;1244;70819;-74
2022/06/25 04:03:10;;;;;;;11.50;4.50;;;;;;;16.31;68.99;100844.06;107807;1244;72761;-73
2022/06/25 04:05:58;;;;;;;11.70;4.30;;;;;;;16.45;68.53;100845.55;107995;1244;60647;-69
2022/06/25 04:08:36;;;;;;;8.80;4.50;;;;;;;16.55;67.76;100842.81;107639;1244;58951;-72
2022/06/25 04:11:06;;;;;;;15.10;4.00;;;;;;;16.67;66.79;100846.82;107595;1244;72827;-70
2022/06/25 04:13:38;;;;;;;10.50;4.10;;;;;;;16.78;66.87;100847.50;107604;1244;70778;-70
2022/06/25 04:16:07;;;;;;;12.90;4.20;;;;;;;16.88;66.61;100849.19;107717;1243;68826;-70
2022/06/25 04:18:37;;;;;;;8.50;3.40;;;;;;;16.95;66.07;100846.60;107767;1244;72292;-72
2022/06/25 04:21:08;;;;;;;10.90;4.10;;;;;;;17.00;65.39;100848.69;107878;1242;60537;-73
2022/06/25 04:23:36;;;;;;;10.30;3.80;;;;;;;17.04;65.53;100849.95;107945;1244;60834;-71
2022/06/25 04:26:06;;;;;;;6.30;3.90;;;;;;;17.03;65.97;100850.38;108153;1244;70832;-72
2022/06/25 04:31:39;;;;;;;6.30;3.90;;;;;;;17.13;66.49;100849.88;109279;1242;59867;-73
2022/06/25 04:34:15;;;;;;;9.60;4.20;;;;;;;17.21;66.53;100853.55;108870;1243;72250;-73
2022/06/25 04:36:45;;;;;;;7.40;4.30;;;;;;;17.30;66.19;100851.07;107889;1244;62273;-74
2022/06/25 04:39:26;;;;;;;9.20;4.20;;;;;;;17.37;65.72;100852.98;108080;1244;59105;-75
2022/06/25 04:41:57;;;;;;;7.00;4.00;;;;;;;17.42;65.52;100851.84;107843;1241;75369;-74
2022/06/25 04:44:28;;;;;;;8.00;4.30;;;;;;;17.52;65.18;100856.61;107987;1243;61404;-70
2022/06/25 04:46:57;;;;;;;8.00;4.20;;;;;;;17.64;64.81;100860.94;107841;1244;68263;-70
2022/06/25 04:49:36;;;;;;;12.40;4.60;;;;;;;17.70;64.68;100858.85;107875;1244;71535;-70
2022/06/25 04:52:06;;;;;;;6.80;4.70;;;;;;;17.75;64.42;100861.75;107838;1244;59060;-72
2022/06/25 04:54:35;;;;;;;9.50;4.40;;;;;;;17.86;64.31;100859.58;108115;1244;58652;-72
2022/06/25 04:57:16;;;;;;;7.00;4.30;;;;;;;18.00;63.84;100859.92;107979;1244;73569;-72
2022/06/25 05:00:11;;;;;;;8.90;3.80;;;;;;;18.13;63.19;100862.44;107944;1244;72345;-71
2022/06/25 05:02:42;;;;;;;8.40;4.00;;;;;;;18.24;62.99;100865.52;107836;1244;71946;-72
2022/06/25 05:05:14;;;;;;;7.20;4.00;;;;;;;18.34;62.54;100864.38;107671;1244;63685;-71
2022/06/25 05:07:43;;;;;;;6.70;4.40;;;;;;;18.47;62.53;100868.49;107762;1244;60526;-72
2022/06/25 05:10:12;;;;;;;7.90;3.80;;;;;;;18.60;61.87;100865.61;107843;1244;60887;-72
2022/06/25 05:15:28;;;;;;;7.70;4.20;;;;;;;18.86;60.63;100863.92;107810;1244;72493;-73
2022/06/25 05:17:58;;;;;;;11.00;4.00;;;;;;;18.96;60.43;100862.23;107787;1244;59820;-71
2022/06/25 05:20:27;;;;;;;9.40;4.00;;;;;;;19.04;60.33;100865.25;107945;1244;74339;-70
2022/06/25 05:22:56;;;;;;;12.00;4.40;;;;;;;19.12;60.33;100862.49;107791;1244;59140;-69
2022/06/25 05:25:25;;;;;;;10.00;4.90;;;;;;;19.25;60.07;100864.77;107883;1244;58611;-74
2022/06/25 05:27:54;;;;;;;12.00;4.70;;;;;;;19.38;60.04;100862.86;108014;1244;62969;-70
2022/06/25 05:30:23;;;;;;;8.60;4.10;;;;;;;19.52;59.27;100865.42;107870;1243;71889;-70
2022/06/25 05:32:52;;;;;;;9.40;4.70;;;;;;;19.61;58.37;100861.96;107901;1243;71366;-73
2022/06/25 05:35:22;;;;;;;7.10;3.90;;;;;;;19.74;58.61;100863.36;107984;1244;64077;-72
2022/06/25 05:37:51;;;;;;;10.00;4.60;;;;;;;19.88;58.19;100862.92;107811;1244;60278;-71
2022/06/25 05:40:20;;;;;;;8.80;3.80;;;;;;;19.98;57.75;100862.51;108163;1243;60124;-74
2022/06/25 05:42:49;;;;;;;8.00;3.70;;;;;;;20.14;56.82;100861.61;108005;1244;73843;-72
2022/06/25 05:45:17;;;;;;;5.70;3.90;;;;;;;20.24;56.12;100861.45;107802;1245;73054;-73
2022/06/25 05:47:48;;;;;;;8.20;3.80;;;;;;;20.28;56.31;100859.22;107880;1243;71419;-72
2022/06/25 05:50:17;;;;;;;8.90;4.90;;;;;;;20.38;56.37;100863.92;107887;1244;64105;-73
2022/06/25 05:52:46;;;;;;;5.00;4.10;;;;;;;20.51;55.92;100868.70;107818;1244;60510;-70
2022/06/25 05:55:15;;;;;;;8.00;4.40;;;;;;;20.59;55.48;100869.23;107740;1244;58389;-73
2022/06/25 05:57:44;;;;;;;10.20;4.00;;;;;;;20.71;55.55;100869.57;107854;1244;62086;-74
2022/06/25 06:00:14;;;;;;;6.20;4.20;;;;;;;20.82;55.58;100866.76;107778;1243;71623;-72
2022/06/25 06:02:44;;;;;;;9.50;4.00;;;;;;;20.98;55.49;100876.42;107827;1244;60456;-74
2022/06/25 06:05:13;;;;;;;11.90;4.20;;;;;;;21.13;55.15;100876.71;107752;1244;73089;-70
2022/06/25 06:07:41;;;;;;;7.60;4.00;;;;;;;21.27;54.69;100877.61;107810;1244;61777;-75
2022/06/25 06:10:11;;;;;;;5.90;4.10;;;;;;;21.40;54.18;100880.68;107798;1244;59811;-74
2022/06/25 06:12:40;;;;;;;8.40;3.80;;;;;;;21.56;54.18;100877.31;107784;1243;72031;-73
2022/06/25 06:15:10;;;;;;;8.80;4.90;;;;;;;21.68;54.26;100879.90;107712;1244;72304;-70
2022/06/25 06:17:40;;;;;;;7.60;4.60;;;;;;;21.84;53.82;100876.08;107698;1244;70311;-73
2022/06/25 06:20:09;;;;;;;6.90;4.40;;;;;;;22.01;53.61;100874.85;107643;1244;73475;-72
2022/06/25 06:22:38;;;;;;;9.50;4.90;;;;;;;22.12;53.49;100877.58;107911;1244;59365;-72
2022/06/25 06:25:08;;;;;;;7.80;4.10;;;;;;;22.06;53.17;100876.50;107747;1244;60494;-75
2022/06/25 06:27:36;;;;;;;9.00;4.10;;;;;;;22.24;53.37;100877.06;108099;1244;73556;-73
2022/06/25 06:30:10;;;;;;;11.90;4.60;;;;;;;22.37;53.26;100882.27;108350;1244;73074;-73
2022/06/25 06:32:39;;;;;;;6.60;4.80;;;;;;;22.43;52.77;100883.60;108350;1244;71206;-73
2022/06/25 06:35:08;;;;;;;9.30;4.10;;;;;;;22.58;52.49;100882.61;107888;1244;73593;-73
2022/06/25 06:37:37;;;;;;;6.70;4.50;;;;;;;22.57;52.57;100881.69;107923;1244;59153;-76
2022/06/25 06:40:08;;;;;;;6.90;4.60;;;;;;;22.67;52.19;100880.69;108068;1244;59178;-76
2022/06/25 06:42:39;;;;;;;8.20;4.40;;;;;;;22.86;52.08;100876.78;107712;1244;72883;-74
2022/06/25 06:45:09;;;;;;;5.90;4.10;;;;;;;23.06;51.84;100880.46;107760;1244;62162;-69
2022/06/25 06:47:38;;;;;;;6.10;4.00;;;;;;;23.24;50.78;100877.83;107864;1244;71056;-74
2022/06/25 06:50:10;;;;;;;7.70;4.00;;;;;;;23.40;50.15;100880.89;107831;1244;65307;-68
2022/06/25 06:52:39;;;;;;;6.70;4.60;;;;;;;23.47;49.52;100878.41;108096;1241;61260;-68
2022/06/25 06:55:08;;;;;;;6.70;4.20;;;;;;;23.35;49.34;100882.70;108104;1244;61643;-69
2022/06/25 06:57:38;;;;;;;5.60;4.00;;;;;;;23.47;49.82;100882.44;107920;1244;74268;-68
2022/06/25 07:00:17;;;;;;;7.90;3.70;;;;;;;23.50;49.08;100884.52;107713;1244;61217;-69
2022/06/25 07:02:46;;;;;;;7.00;4.00;;;;;;;23.59;49.27;100875.37;109950;1242;68806;-71
2022/06/25 07:05:15;;;;;;;9.40;3.90;;;;;;;23.75;49.46;100877.83;110304;1241;63261;-69
2022/06/25 07:07:47;;;;;;;7.40;3.50;;;;;;;23.83;48.79;100881.95;109736;1243;58734;-69
2022/06/25 07:10:16;;;;;;;5.70;3.70;;;;;;;23.88;48.39;100880.55;107927;1242;58512;-68
2022/06/25 07:12:45;;;;;;;6.50;3.80;;;;;;;24.08;48.68;100880.57;107777;1243;72383;-69
2022/06/25 07:15:14;;;;;;;9.30;3.30;;;;;;;24.09;47.65;100878.98;107989;1243;61616;-70
2022/06/25 07:17:43;;;;;;;6.50;3.50;;;;;;;24.06;47.80;100871.33;108142;1241;59307;-68
2022/06/25 07:20:12;;;;;;;8.10;4.10;;;;;;;24.03;47.99;100876.36;108022;1241;74784;-68
2022/06/25 07:22:41;;;;;;;5.70;3.30;;;;;;;24.05;47.32;100879.41;107869;1242;59168;-68
2022/06/25 07:25:10;;;;;;;7.00;3.20;;;;;;;24.13;46.55;100881.42;107851;1242;59064;-66
2022/06/25 07:27:39;;;;;;;5.70;3.90;;;;;;;24.07;45.95;100878.88;107822;1244;62058;-68
2022/06/25 07:30:09;;;;;;;5.50;3.20;;;;;;;24.08;46.40;100879.46;108099;1241;72181;-69
2022/06/25 07:32:38;;;;;;;6.40;3.30;;;;;;;24.13;46.64;100880.33;108105;1243;60023;-68
2022/06/25 07:35:08;;;;;;;6.50;3.50;;;;;;;24.24;46.92;100880.10;107898;1243;63313;-69
2022/06/25 07:37:37;;;;;;;8.90;4.10;;;;;;;24.29;46.97;100879.52;107814;1244;59015;-70
2022/06/25 07:40:07;;;;;;;6.20;3.60;;;;;;;24.32;47.02;100877.13;107656;1244;59069;-71
2022/06/25 07:42:36;;;;;;;5.80;3.50;;;;;;;24.56;46.34;100878.26;108024;1241;62072;-71
2022/06/25 07:45:06;;;;;;;7.60;3.50;;;;;;;24.72;45.94;100870.80;107896;1244;72630;-71
2022/06/25 07:47:38;;;;;;;4.70;3.60;;;;;;;24.80;46.32;100872.52;107993;1241;70912;-70
2022/06/25 07:52:55;;;;;;;6.40;3.40;;;;;;;24.83;45.31;100875.98;107866;1241;59750;-69
2022/06/25 07:55:24;;;;;;;5.90;3.50;;;;;;;24.81;45.63;100874.86;107963;1244;59031;-69
2022/06/25 07:57:53;;;;;;;6.20;3.20;;;;;;;24.91;45.37;100872.30;107997;1241;62210;-70
2022/06/25 08:00:22;;;;;;;8.70;3.70;;;;;;;24.98;45.37;100873.23;108201;1241;61420;-70
2022/06/25 08:02:52;;;;;;;10.40;3.40;;;;;;;24.91;45.30;100877.85;108020;1241;69191;-68
2022/06/25 08:05:21;;;;;;;6.30;3.60;;;;;;;24.94;44.62;100872.02;108217;1241;63614;-71
2022/06/25 08:07:50;;;;;;;5.00;3.30;;;;;;;25.12;44.55;100866.30;108214;1241;59002;-68
2022/06/25 08:10:19;;;;;;;8.60;3.20;;;;;;;25.23;43.58;100866.86;108127;1241;57465;-66
2022/06/25 08:12:48;;;;;;;4.40;3.00;;;;;;;25.18;43.73;100861.99;108025;1241;63039;-72
2022/06/25 08:15:19;;;;;;;9.90;3.60;;;;;;;25.01;44.02;100866.00;108120;1241;61686;-68
2022/06/25 08:17:49;;;;;;;5.30;3.20;;;;;;;25.14;43.74;100866.71;107742;1244;70595;-70
2022/06/25 08:20:18;;;;;;;5.10;2.70;;;;;;;25.52;42.55;100866.52;108084;1241;73187;-70
2022/06/25 08:22:47;;;;;;;5.60;3.20;;;;;;;25.84;40.65;100859.34;107961;1241;61001;-69
2022/06/25 08:25:16;;;;;;;7.10;3.20;;;;;;;26.20;40.61;100858.46;108093;1241;60903;-69
2022/06/25 08:27:53;;;;;;;5.80;2.90;;;;;;;26.42;40.25;100855.98;108056;1244;73507;-70
2022/06/25 08:30:24;;;;;;;6.80;2.90;;;;;;;26.76;40.19;100857.09;108070;1242;62068;-71
2022/06/25 08:32:54;;;;;;;4.30;2.80;;;;;;;26.92;39.52;100858.29;107935;1241;70510;-72
2022/06/25 08:35:23;;;;;;;4.30;3.10;;;;;;;26.96;39.24;100856.81;108112;1241;64094;-71
2022/06/25 08:37:54;;;;;;;6.50;3.10;;;;;;;27.10;38.30;100856.96;107908;1241;61342;-73
2022/06/25 08:40:23;;;;;;;5.00;3.20;;;;;;;26.91;37.27;100849.46;107939;1242;61281;-74
2022/06/25 08:42:51;;;;;;;5.20;2.90;;;;;;;27.17;36.98;100853.41;107813;1242;73922;-74
2022/06/25 08:45:20;;;;;;;4.70;2.70;;;;;;;27.00;37.09;100852.91;108058;1242;61646;-72
2022/06/25 08:47:52;;;;;;;5.40;2.50;;;;;;;26.51;37.88;100856.65;107728;1241;69598;-76
2022/06/25 08:50:22;;;;;;;5.60;2.90;;;;;;;26.68;38.02;100855.77;108049;1241;73887;-73
2022/06/25 08:52:55;;;;;;;4.60;2.60;;;;;;;26.77;38.06;100851.48;107731;1244;61947;-75
2022/06/25 08:55:36;;;;;;;3.70;2.70;;;;;;;26.83;38.21;100846.17;107969;1243;62194;-74
2022/06/25 08:58:09;;;;;;;5.60;2.90;;;;;;;27.03;37.59;100844.63;107729;1241;73018;-76
2022/06/25 09:00:41;;;;;;;5.30;2.30;;;;;;;27.21;37.68;100842.21;108113;1243;63263;-74
2022/06/25 09:03:11;;;;;;;5.40;2.70;;;;;;;27.43;36.87;100847.70;107927;1242;60689;-74
2022/06/25 09:05:42;;;;;;;4.50;3.00;;;;;;;27.58;36.27;100844.98;107919;1241;63731;-73
2022/06/25 09:08:16;;;;;;;4.90;3.00;;;;;;;27.56;35.95;100846.61;107845;1242;59004;-74
2022/06/25 09:10:52;;;;;;;4.60;2.90;;;;;;;27.34;36.40;100845.09;108090;1241;61263;-73
2022/06/25 09:13:25;;;;;;;4.70;2.80;;;;;;;27.14;36.50;100847.98;108107;1241;63604;-75
2022/06/25 09:15:54;;;;;;;7.70;3.20;;;;;;;26.89;36.40;100848.48;108032;1241;70857;-73
2022/06/25 09:18:23;;;;;;;7.00;2.90;;;;;;;26.69;36.69;100854.23;107883;1242;71612;-77
2022/06/25 09:21:08;;;;;;;6.70;2.80;;;;;;;26.55;36.11;100850.79;107852;1242;63855;-76
2022/06/25 09:24:00;;;;;;;5.50;2.90;;;;;;;26.53;36.40;100847.80;107797;1241;59815;-74
2022/06/25 09:26:29;;;;;;;7.80;3.20;;;;;;;26.45;36.57;100848.60;107586;1244;59913;-74
2022/06/25 09:29:02;;;;;;;5.80;2.70;;;;;;;26.61;36.65;100849.16;107874;1241;62783;-77
2022/06/25 09:31:37;;;;;;;;;;;;;;;27.01;35.90;100844.27;108177;1241;72608;-74
2022/06/25 09:34:08;;;;;;;3.90;2.40;;;;;;;27.36;35.44;100841.04;108210;1241;70941;-75
2022/06/25 09:36:37;;;;;;;5.80;3.20;;;;;;;27.88;35.01;100837.13;108044;1242;63827;-77
2022/06/25 09:39:06;;;;;;;5.40;2.40;;;;;;;28.08;34.99;100843.34;108052;1241;61625;-74
2022/06/25 09:41:56;;;;;;;5.80;3.20;;;;;;;27.76;35.60;100849.21;108147;1241;58947;-75
2022/06/25 09:44:26;;;;;;;4.20;2.70;;;;;;;27.40;35.87;100851.64;108185;1241;72476;-78
2022/06/25 09:46:58;;;;;;;4.20;2.60;;;;;;;27.38;35.04;100853.42;108460;1241;72658;-76
2022/06/25 09:49:27;;;;;;;4.80;2.80;;;;;;;27.22;34.66;100853.20;109617;1243;61856;-77
2022/06/25 09:52:03;;;;;;;4.60;2.60;;;;;;;27.27;34.37;100851.40;108590;1241;63224;-75
2022/06/25 09:54:33;;;;;;;5.10;2.80;;;;;;;27.25;34.47;100851.67;108619;1243;59037;-80
2022/06/25 09:57:03;;;;;;;3.70;2.40;;;;;;;27.43;34.65;100847.20;108629;1241;60730;-78
2022/06/25 09:59:33;;;;;;;4.30;2.70;;;;;;;27.84;34.91;100848.77;108323;1241;74117;-77
2022/06/25 10:02:04;;;;;;;3.70;2.80;;;;;;;27.98;34.49;100850.66;108286;1241;61285;-75
2022/06/25 10:04:34;;;;;;;4.40;2.30;;;;;;;27.96;34.41;100849.08;108233;1241;60096;-78
2022/06/25 10:07:09;;;;;;;6.60;2.80;;;;;;;28.03;33.95;100842.26;108199;1241;73941;-77
2022/06/25 10:09:43;;;;;;;4.10;2.70;;;;;;;28.35;33.63;100840.85;108062;1241;62848;-75
2022/06/25 10:12:13;;;;;;;4.10;2.50;;;;;;;28.39;33.22;100843.23;108065;1241;62038;-78
2022/06/25 10:14:42;;;;;;;5.00;2.50;;;;;;;28.58;33.02;100838.55;107880;1241;62627;-77
2022/06/25 10:17:12;;;;;;;5.40;2.40;;;;;;;28.80;32.84;100840.29;107857;1243;62008;-80
2022/06/25 10:19:41;;;;;;;4.20;2.50;;;;;;;28.97;32.01;100826.50;108083;1241;70612;-80
2022/06/25 10:22:12;;;;;;;3.40;2.50;;;;;;;28.39;32.90;100826.83;107985;1242;63092;-76
2022/06/25 10:24:41;;;;;;;7.80;2.90;;;;;;;28.11;33.74;100829.25;107927;1241;59523;-77
2022/06/25 10:27:10;;;;;;;4.30;2.40;;;;;;;27.90;34.35;100826.21;107984;1241;62465;-82
2022/06/25 10:29:53;;;;;;;3.00;2.30;;;;;;;27.80;34.85;100825.50;108033;1241;62643;-78
2022/06/25 10:32:25;;;;;;;5.70;3.40;;;;;;;27.69;35.60;100832.27;107873;1243;71994;-75
2022/06/25 10:34:56;;;;;;;5.80;2.80;;;;;;;27.49;36.42;100830.08;108030;1241;70962;-76
2022/06/25 10:37:25;;;;;;;7.20;3.30;;;;;;;27.34;37.03;100831.64;107942;1243;63922;-77
2022/06/25 10:39:56;;;;;;;5.90;3.30;;;;;;;27.53;36.44;100831.19;108112;1241;58884;-77
2022/06/25 10:45:17;;;;;;;5.80;2.70;;;;;;;28.06;34.79;100827.20;107959;1241;74815;-80
2022/06/25 10:47:57;;;;;;;6.10;3.20;;;;;;;27.90;34.96;100828.56;108152;1241;62253;-77
2022/06/25 10:50:32;;;;;;;4.60;2.40;;;;;;;28.04;34.63;100823.70;107954;1241;69841;-76
2022/06/25 10:53:01;;;;;;;6.10;2.80;;;;;;;28.16;34.77;100827.46;108070;1242;63646;-78
2022/06/25 10:55:34;;;;;;;4.80;2.90;;;;;;;28.39;34.74;100833.63;108131;1241;61310;-74
2022/06/25 10:58:43;;;;;;;4.90;2.60;;;;;;;28.47;34.82;100828.92;107874;1241;61862;-73
2022/06/25 11:01:22;;;;;;;4.00;2.40;;;;;;;29.51;33.24;100828.12;107900;1241;64126;-75
2022/06/25 11:03:54;;;;;;;7.80;3.50;;;;;;;30.16;31.80;100832.16;107935;1241;71562;-76
2022/06/25 11:06:30;;;;;;;3.50;2.70;;;;;;;30.42;31.34;100831.09;108074;1241;71003;-75
2022/06/25 11:09:09;;;;;;;5.80;2.90;;;;;;;30.70;30.80;100825.98;108123;1241;63654;-81
2022/06/25 11:11:39;;;;;;;3.90;2.60;;;;;;;30.97;30.10;100822.16;107893;1241;59989;-78
2022/06/25 11:14:24;;;;;;;4.80;2.90;;;;;;;31.37;29.69;100817.52;108052;1241;59825;-79
2022/06/25 11:16:55;;;;;;;5.10;2.80;;;;;;;30.92;29.70;100813.93;108032;1241;63842;-68
2022/06/25 11:19:24;;;;;;;4.80;3.70;;;;;;;31.03;29.42;100809.11;107946;1243;60884;-66
2022/06/25 11:21:54;;;;;;;3.10;2.40;;;;;;;31.41;29.04;100812.09;107831;1241;60022;-66
2022/06/25 11:24:26;;;;;;;4.00;2.70;;;;;;;31.80;28.95;100808.88;108072;1241;72864;-68
2022/06/25 11:29:51;;;;;;;5.90;2.60;;;;;;;32.07;28.19;100807.70;108094;1241;59620;-68
2022/06/25 11:32:28;;;;;;;3.70;2.70;;;;;;;31.74;28.34;100797.89;108141;1241;66054;-68
2022/06/25 11:35:00;;;;;;;4.50;3.00;;;;;;;31.64;28.42;100796.51;108040;1241;61662;-69
2022/06/25 11:37:32;;;;;;;7.20;2.70;;;;;;;31.62;28.61;100796.92;108123;1241;68858;-66
2022/06/25 11:40:02;;;;;;;3.80;3.00;;;;;;;30.97;29.99;100795.39;108037;1241;62956;-65
2022/06/25 11:42:33;;;;;;;4.00;2.70;;;;;;;30.59;30.49;100799.55;108085;1241;58304;-66
2022/06/25 11:45:02;;;;;;;4.40;2.90;;;;;;;29.90;31.24;100800.39;108106;1241;62146;-65
2022/06/25 11:47:30;;;;;;;6.50;2.80;;;;;;;29.89;31.61;100796.61;107981;1241;74109;-65
2022/06/25 11:50:08;;;;;;;7.50;2.30;;;;;;;30.25;30.97;100798.09;107988;1241;71801;-63
2022/06/25 11:52:44;;;;;;;3.10;2.50;;;;;;;30.44;30.82;100798.28;107936;1243;60499;-64
2022/06/25 11:55:13;;;;;;;4.20;2.70;;;;;;;31.43;29.45;100790.92;107747;1243;63295;-65